createdAt,value
2023-03-06T00:00:23.946Z,12.13
2023-03-06T00:02:52.338Z,13.18
2023-03-06T00:05:20.030Z,11.98
2023-03-06T00:07:47.624Z,12.18
2023-03-06T00:10:16.919Z,11.63
2023-03-06T00:12:44.495Z,12.48
2023-03-06T00:15:12.882Z,10.93
2023-03-06T00:17:41.768Z,12.30
2023-03-06T00:20:13.325Z,11.27
2023-03-06T00:22:44.196Z,11.70
2023-03-06T00:25:13.837Z,12.25
2023-03-06T00:27:42.321Z,12.35
2023-03-06T00:30:12.100Z,10.82
2023-03-06T00:32:41.051Z,11.27
2023-03-06T00:35:09.446Z,12.65
2023-03-06T00:37:37.158Z,11.60
2023-03-06T00:40:05.958Z,11.70
2023-03-06T00:42:33.373Z,11.07
2023-03-06T00:45:00.798Z,11.98
2023-03-06T00:47:28.450Z,10.88
2023-03-06T00:49:57.235Z,10.70
2023-03-06T00:52:24.648Z,11.20
2023-03-06T00:54:52.321Z,11.43
2023-03-06T00:57:19.849Z,11.25
2023-03-06T00:59:47.357Z,11.55
2023-03-06T01:02:15.135Z,12.00
2023-03-06T01:04:42.686Z,11.45
2023-03-06T01:07:12.463Z,11.32
2023-03-06T01:09:39.954Z,11.85
2023-03-06T01:12:08.221Z,10.73
2023-03-06T01:14:35.752Z,12.55
2023-03-06T01:17:03.311Z,11.40
2023-03-06T01:19:30.838Z,10.70
2023-03-06T01:21:58.318Z,12.00
2023-03-06T01:24:28.410Z,9.10
2023-03-06T01:26:57.303Z,10.27
2023-03-06T01:29:26.290Z,10.15
2023-03-06T01:31:53.713Z,9.63
2023-03-06T01:34:21.299Z,9.18
2023-03-06T01:36:48.804Z,10.63
2023-03-06T01:39:16.316Z,8.88
2023-03-06T01:41:45.094Z,10.00
2023-03-06T01:44:13.718Z,9.55
2023-03-06T01:46:42.331Z,10.38
2023-03-06T01:49:16.782Z,9.77
2023-03-06T01:51:49.805Z,9.35
2023-03-06T01:54:22.701Z,10.20
2023-03-06T01:56:56.694Z,9.52
2023-03-06T01:59:26.898Z,9.48
2023-03-06T02:01:56.039Z,10.93
2023-03-06T02:04:23.911Z,9.50
2023-03-06T02:06:52.195Z,10.15
2023-03-06T02:09:19.750Z,11.25
2023-03-06T02:11:47.269Z,11.38
2023-03-06T02:14:17.426Z,9.68
2023-03-06T02:16:45.145Z,11.43
2023-03-06T02:19:26.218Z,10.70
2023-03-06T02:21:53.780Z,11.35
2023-03-06T02:24:34.204Z,11.13
2023-03-06T02:27:04.670Z,10.52
2023-03-06T02:29:32.339Z,10.23
2023-03-06T02:32:03.197Z,12.43
2023-03-06T02:34:53.792Z,10.90
2023-03-06T02:37:22.884Z,11.60
2023-03-06T02:39:55.091Z,10.38
2023-03-06T02:42:26.555Z,10.32
2023-03-06T02:44:55.970Z,11.57
2023-03-06T02:47:23.471Z,12.23
2023-03-06T02:49:50.980Z,11.18
2023-03-06T02:52:18.788Z,11.40
2023-03-06T02:54:46.314Z,12.23
2023-03-06T02:57:13.864Z,11.45
2023-03-06T02:59:43.312Z,12.18
2023-03-06T03:02:11.231Z,12.07
2023-03-06T03:04:39.008Z,12.82
2023-03-06T03:07:08.248Z,11.95
2023-03-06T03:12:06.596Z,11.07
2023-03-06T03:14:34.763Z,12.00
2023-03-06T03:17:05.462Z,11.88
2023-03-06T03:19:33.083Z,11.98
2023-03-06T03:22:00.631Z,10.55
2023-03-06T03:24:28.126Z,12.20
2023-03-06T03:26:56.023Z,11.88
2023-03-06T03:29:24.911Z,11.70
2023-03-06T03:31:53.552Z,11.40
2023-03-06T03:34:26.525Z,10.75
2023-03-06T03:36:54.566Z,12.80
2023-03-06T03:39:22.578Z,11.05
2023-03-06T03:41:50.307Z,11.27
2023-03-06T03:44:17.740Z,11.32
2023-03-06T03:46:45.727Z,11.68
2023-03-06T03:49:18.531Z,11.68
2023-03-06T03:51:47.313Z,12.43
2023-03-06T03:54:14.911Z,12.45
2023-03-06T03:56:46.060Z,10.05
2023-03-06T03:59:19.515Z,10.68
2023-03-06T04:01:58.204Z,11.32
2023-03-06T04:04:26.639Z,11.63
2023-03-06T04:06:55.611Z,12.60
2023-03-06T04:09:23.352Z,11.80
2023-03-06T04:11:51.077Z,11.65
2023-03-06T04:14:18.799Z,12.52
2023-03-06T04:16:46.314Z,12.00
2023-03-06T04:19:14.250Z,13.02
2023-03-06T04:21:41.740Z,13.48
2023-03-06T04:24:11.264Z,11.60
2023-03-06T04:26:38.845Z,12.43
2023-03-06T04:29:06.924Z,11.30
2023-03-06T04:31:34.661Z,11.95
2023-03-06T04:34:02.147Z,13.68
2023-03-06T04:36:31.164Z,11.38
2023-03-06T04:39:03.348Z,12.30
2023-03-06T04:41:34.451Z,12.40
2023-03-06T04:44:02.320Z,11.52
2023-03-06T04:46:29.816Z,13.88
2023-03-06T04:48:57.302Z,13.50
2023-03-06T04:51:25.357Z,13.30
2023-03-06T04:53:52.756Z,11.38
2023-03-06T04:56:20.151Z,13.32
2023-03-06T04:58:49.069Z,11.43
2023-03-06T05:01:16.614Z,12.23
2023-03-06T05:03:44.189Z,12.70
2023-03-06T05:06:11.603Z,12.38
2023-03-06T05:08:39.233Z,11.30
2023-03-06T05:11:07.051Z,12.18
2023-03-06T05:13:34.617Z,12.65
2023-03-06T05:16:04.709Z,12.10
2023-03-06T05:18:32.963Z,11.77
2023-03-06T05:21:00.549Z,11.85
2023-03-06T05:23:29.131Z,12.10
2023-03-06T05:25:56.875Z,11.55
2023-03-06T05:28:25.839Z,12.30
2023-03-06T05:30:53.280Z,11.27
2023-03-06T05:33:22.038Z,12.60
2023-03-06T05:35:49.729Z,12.55
2023-03-06T05:38:17.429Z,13.55
2023-03-06T05:40:45.544Z,12.55
2023-03-06T05:43:13.030Z,13.30
2023-03-06T05:45:40.744Z,13.13
2023-03-06T05:48:09.003Z,11.70
2023-03-06T05:50:38.543Z,12.43
2023-03-06T05:53:06.368Z,12.98
2023-03-06T05:55:33.847Z,11.93
2023-03-06T05:58:01.237Z,11.95
2023-03-06T06:00:28.736Z,13.10
2023-03-06T06:02:56.115Z,11.48
2023-03-06T06:05:23.495Z,12.02
2023-03-06T06:07:52.352Z,12.15
2023-03-06T06:10:20.005Z,13.95
2023-03-06T06:12:47.532Z,13.02
2023-03-06T06:15:15.416Z,12.40
2023-03-06T06:17:42.957Z,13.02
2023-03-06T06:20:11.631Z,15.10
2023-03-06T06:22:39.064Z,12.95
2023-03-06T06:25:08.863Z,13.55
2023-03-06T06:27:36.339Z,13.73
2023-03-06T06:30:04.895Z,13.93
2023-03-06T06:32:32.479Z,14.30
2023-03-06T06:34:59.908Z,14.18
2023-03-06T06:37:27.330Z,14.10
2023-03-06T06:39:54.849Z,14.00
2023-03-06T06:42:33.178Z,14.32
2023-03-06T06:45:03.076Z,14.15
2023-03-06T06:47:31.099Z,14.38
2023-03-06T06:49:58.659Z,13.98
2023-03-06T06:52:26.300Z,14.25
2023-03-06T06:54:54.138Z,13.68
2023-03-06T06:57:22.918Z,13.30
2023-03-06T06:59:52.553Z,13.27
2023-03-06T07:02:21.017Z,12.95
2023-03-06T07:05:02.482Z,14.07
2023-03-06T07:07:31.497Z,12.93
2023-03-06T07:09:58.918Z,12.00
2023-03-06T07:12:27.784Z,12.85
2023-03-06T07:14:55.564Z,12.55
2023-03-06T07:17:23.053Z,12.88
2023-03-06T07:19:50.628Z,13.65
2023-03-06T07:22:18.244Z,13.43
2023-03-06T07:24:45.737Z,13.68
2023-03-06T07:27:13.304Z,12.95
2023-03-06T07:29:44.068Z,13.30
2023-03-06T07:32:11.776Z,14.07
2023-03-06T07:34:39.488Z,13.43
2023-03-06T07:37:07.019Z,12.38
2023-03-06T07:39:34.896Z,12.65
2023-03-06T07:42:02.453Z,12.48
2023-03-06T07:44:29.986Z,11.75
2023-03-06T07:46:58.790Z,11.63
2023-03-06T07:49:26.371Z,11.43
2023-03-06T07:51:53.837Z,11.48
2023-03-06T07:54:21.242Z,11.13
2023-03-06T07:56:50.324Z,12.20
2023-03-06T07:59:17.906Z,14.07
2023-03-06T08:01:45.566Z,14.20
2023-03-06T08:04:14.457Z,16.23
2023-03-06T08:06:42.011Z,12.80
2023-03-06T08:09:09.376Z,12.52
2023-03-06T08:11:36.820Z,11.45
2023-03-06T08:14:04.962Z,10.90
2023-03-06T08:16:32.445Z,11.15
2023-03-06T08:18:59.915Z,10.60
2023-03-06T08:21:28.860Z,9.77
2023-03-06T08:23:56.683Z,10.15
2023-03-06T08:26:26.523Z,9.65
2023-03-06T08:28:54.898Z,9.05
2023-03-06T08:31:27.453Z,9.45
2023-03-06T08:33:55.838Z,8.90
2023-03-06T08:36:23.934Z,8.35
2023-03-06T08:38:52.976Z,9.02
2023-03-06T08:41:21.085Z,8.82
2023-03-06T08:43:49.218Z,8.60
2023-03-06T08:46:18.790Z,8.35
2023-03-06T08:51:16.467Z,9.05
2023-03-06T08:53:44.695Z,9.10
2023-03-06T08:56:18.772Z,8.07
2023-03-06T08:58:46.528Z,7.10
2023-03-06T09:01:15.185Z,7.65
2023-03-06T09:03:42.962Z,7.82
2023-03-06T09:06:10.776Z,8.10
2023-03-06T09:08:38.568Z,7.85
2023-03-06T09:11:06.002Z,7.20
2023-03-06T09:13:34.856Z,8.18
2023-03-06T09:16:02.270Z,7.80
2023-03-06T09:18:29.716Z,6.95
2023-03-06T09:20:57.200Z,7.28
2023-03-06T09:23:24.720Z,7.13
2023-03-06T09:25:53.016Z,7.10
2023-03-06T09:28:20.836Z,7.47
2023-03-06T09:30:50.317Z,6.68
2023-03-06T09:33:18.489Z,7.13
2023-03-06T09:35:50.853Z,7.80
2023-03-06T09:38:18.361Z,6.72
2023-03-06T09:41:01.691Z,7.60
2023-03-06T09:43:31.550Z,7.10
2023-03-06T09:46:00.311Z,6.15
2023-03-06T09:48:37.115Z,6.85
2023-03-06T09:51:12.283Z,7.63
2023-03-06T09:53:55.408Z,7.88
2023-03-06T09:56:30.969Z,7.28
2023-03-06T09:59:06.455Z,7.30
2023-03-06T10:01:40.046Z,7.25
2023-03-06T10:04:19.573Z,6.85
2023-03-06T10:06:49.546Z,6.53
2023-03-06T10:09:20.529Z,6.75
2023-03-06T10:11:52.891Z,6.75
2023-03-06T10:14:26.516Z,8.88
2023-03-06T10:16:56.106Z,7.57
2023-03-06T10:19:34.416Z,7.07
2023-03-06T10:22:07.152Z,8.23
2023-03-06T10:24:49.617Z,7.82
2023-03-06T10:27:28.815Z,7.20
2023-03-06T10:30:03.856Z,7.38
2023-03-06T10:32:48.659Z,7.50
2023-03-06T10:35:19.702Z,8.07
2023-03-06T10:37:47.977Z,7.82
2023-03-06T10:40:18.166Z,8.13
2023-03-06T10:42:45.641Z,8.30
2023-03-06T10:45:15.302Z,8.35
2023-03-06T10:47:44.151Z,10.43
2023-03-06T10:50:24.957Z,8.52
2023-03-06T10:53:00.378Z,9.05
2023-03-06T10:55:30.462Z,9.77
2023-03-06T10:57:58.128Z,10.05
2023-03-06T11:00:31.477Z,9.60
2023-03-06T11:03:22.978Z,9.57
2023-03-06T11:05:57.014Z,10.05
2023-03-06T11:08:24.523Z,10.15
2023-03-06T11:10:57.912Z,10.77
2023-03-06T11:13:27.578Z,10.90
2023-03-06T11:15:58.167Z,11.00
2023-03-06T11:18:34.736Z,11.43
2023-03-06T11:21:07.144Z,11.35
2023-03-06T11:23:41.096Z,10.57
2023-03-06T11:26:24.897Z,9.45
2023-03-06T11:29:02.918Z,9.77
2023-03-06T11:31:33.390Z,10.45
2023-03-06T11:34:09.021Z,9.98
2023-03-06T11:36:40.031Z,9.35
2023-03-06T11:39:22.672Z,10.18
2023-03-06T11:41:58.220Z,9.95
2023-03-06T11:44:34.563Z,9.02
2023-03-06T11:47:10.950Z,9.23
2023-03-06T11:49:44.702Z,9.57
2023-03-06T11:52:18.339Z,9.95
2023-03-06T11:54:50.793Z,10.25
2023-03-06T11:57:22.192Z,9.98
2023-03-06T12:00:01.026Z,9.30
2023-03-06T12:02:40.851Z,8.38
2023-03-06T12:05:29.111Z,8.18
2023-03-06T12:08:07.761Z,8.30
2023-03-06T12:10:41.435Z,9.40
2023-03-06T12:13:27.768Z,9.48
2023-03-06T12:16:10.157Z,9.82
2023-03-06T12:18:47.851Z,8.65
2023-03-06T12:21:27.212Z,9.20
2023-03-06T12:24:12.682Z,8.25
2023-03-06T12:26:57.971Z,8.88
2023-03-06T12:29:40.305Z,9.13
2023-03-06T12:32:16.894Z,9.68
2023-03-06T12:34:59.249Z,10.45
2023-03-06T12:37:39.529Z,9.18
2023-03-06T12:40:38.814Z,9.48
2023-03-06T12:43:28.520Z,9.43
2023-03-06T12:45:59.232Z,9.77
2023-03-06T12:48:33.746Z,8.65
2023-03-06T12:51:01.952Z,8.70
2023-03-06T12:53:32.875Z,8.25
2023-03-06T12:56:02.614Z,9.20
2023-03-06T12:58:51.957Z,8.63
2023-03-06T13:01:41.092Z,7.95
2023-03-06T13:04:27.567Z,8.73
2023-03-06T13:07:09.804Z,8.65
2023-03-06T13:09:55.470Z,7.35
2023-03-06T13:12:36.548Z,7.82
2023-03-06T13:15:27.354Z,8.82
2023-03-06T13:17:54.939Z,8.70
2023-03-06T13:20:34.865Z,8.93
2023-03-06T13:23:42.581Z,8.48
2023-03-06T13:26:49.947Z,7.25
2023-03-06T13:29:58.953Z,7.10
2023-03-06T13:32:32.415Z,7.63
2023-03-06T13:35:00.138Z,9.95
2023-03-06T13:37:47.735Z,8.40
2023-03-06T13:40:27.162Z,8.35
2023-03-06T13:43:21.345Z,16.77
2023-03-06T13:45:50.099Z,6.90
2023-03-06T13:48:42.990Z,8.50
2023-03-06T13:51:22.832Z,6.28
2023-03-06T13:54:25.821Z,7.05
2023-03-06T13:57:29.968Z,8.25
2023-03-06T14:00:20.460Z,6.25
2023-03-06T14:03:07.730Z,6.97
2023-03-06T14:05:43.343Z,6.65
2023-03-06T14:08:14.550Z,6.43
2023-03-06T14:10:43.371Z,6.70
2023-03-06T14:13:18.346Z,7.15
2023-03-06T14:15:50.570Z,7.47
2023-03-06T14:18:23.905Z,6.63
2023-03-06T14:20:56.650Z,5.47
2023-03-06T14:23:28.201Z,6.00
2023-03-06T14:26:02.386Z,6.57
2023-03-06T14:28:31.395Z,6.07
2023-03-06T14:31:02.819Z,7.82
2023-03-06T14:33:33.421Z,7.78
2023-03-06T14:36:03.383Z,7.35
2023-03-06T14:38:36.251Z,7.97
2023-03-06T14:41:05.524Z,10.00
2023-03-06T14:43:33.355Z,7.20
2023-03-06T14:46:04.161Z,7.63
2023-03-06T14:48:41.316Z,6.50
2023-03-06T14:51:16.009Z,5.95
2023-03-06T14:53:45.194Z,8.73
2023-03-06T14:56:17.043Z,7.13
2023-03-06T14:58:52.661Z,7.50
2023-03-06T15:01:31.464Z,5.15
2023-03-06T15:04:00.944Z,6.07
2023-03-06T15:06:33.968Z,8.13
2023-03-06T15:09:07.627Z,9.05
2023-03-06T15:11:52.291Z,10.02
2023-03-06T15:14:27.132Z,7.55
2023-03-06T15:16:55.876Z,6.13
2023-03-06T15:19:23.347Z,7.05
2023-03-06T15:21:52.054Z,6.47
2023-03-06T15:24:33.259Z,10.82
2023-03-06T15:27:02.931Z,9.13
2023-03-06T15:29:30.661Z,10.07
2023-03-06T15:32:31.091Z,7.82
2023-03-06T15:35:27.615Z,7.97
2023-03-06T15:37:55.557Z,7.60
2023-03-06T15:40:24.733Z,6.60
2023-03-06T15:45:21.898Z,7.00
2023-03-06T15:47:53.550Z,7.05
2023-03-06T15:50:23.304Z,7.60
2023-03-06T15:52:51.052Z,6.88
2023-03-06T15:55:20.961Z,7.78
2023-03-06T15:57:51.627Z,6.45
2023-03-06T16:00:52.988Z,6.43
2023-03-06T16:03:22.168Z,7.18
2023-03-06T16:05:49.630Z,8.02
2023-03-06T16:08:17.129Z,6.75
2023-03-06T16:10:45.675Z,9.32
2023-03-06T16:13:17.269Z,6.43
2023-03-06T16:15:47.589Z,7.22
2023-03-06T16:18:15.511Z,6.45
2023-03-06T16:20:44.709Z,6.60
2023-03-06T16:23:12.613Z,6.30
2023-03-06T16:25:42.099Z,5.82
2023-03-06T16:28:12.443Z,6.47
2023-03-06T16:30:41.924Z,5.28
2023-03-06T16:33:10.766Z,6.85
2023-03-06T16:35:38.653Z,7.15
2023-03-06T16:38:07.680Z,6.20
2023-03-06T16:40:41.351Z,5.75
2023-03-06T16:43:10.378Z,7.03
2023-03-06T16:45:39.583Z,6.07
2023-03-06T16:50:38.516Z,6.35
2023-03-06T16:53:08.080Z,6.47
2023-03-06T16:55:35.686Z,8.02
2023-03-06T16:58:03.303Z,6.95
2023-03-06T17:00:33.121Z,7.95
2023-03-06T17:03:01.584Z,7.68
2023-03-06T17:05:29.399Z,7.20
2023-03-06T17:07:56.823Z,6.68
2023-03-06T17:10:27.162Z,7.25
2023-03-06T17:12:55.830Z,7.43
2023-03-06T17:15:23.430Z,6.75
2023-03-06T17:17:51.668Z,6.82
2023-03-06T17:20:20.260Z,6.97
2023-03-06T17:22:47.906Z,8.27
2023-03-06T17:25:15.422Z,7.82
2023-03-06T17:27:44.228Z,7.50
2023-03-06T17:30:12.641Z,8.35
2023-03-06T17:32:41.013Z,6.80
2023-03-06T17:35:09.578Z,7.68
2023-03-06T17:37:37.065Z,7.43
2023-03-06T17:40:08.357Z,8.02
2023-03-06T17:42:35.928Z,7.47
2023-03-06T17:45:09.075Z,8.45
2023-03-06T17:47:36.504Z,7.68
2023-03-06T17:50:04.704Z,8.55
2023-03-06T17:52:33.344Z,8.85
2023-03-06T17:55:00.779Z,11.50
2023-03-06T17:57:28.262Z,19.25
2023-03-06T17:59:56.342Z,8.57
2023-03-06T18:02:25.119Z,7.38
2023-03-06T18:04:52.636Z,8.13
2023-03-06T18:07:20.091Z,7.85
2023-03-06T18:09:47.645Z,8.00
2023-03-06T18:12:16.065Z,10.02
2023-03-06T18:14:43.565Z,8.93
2023-03-06T18:17:11.098Z,8.32
2023-03-06T18:19:41.253Z,7.63
2023-03-06T18:22:08.745Z,7.20
2023-03-06T18:24:36.859Z,8.25
2023-03-06T18:27:04.414Z,8.18
2023-03-06T18:29:31.872Z,8.40
2023-03-06T18:31:59.486Z,8.55
2023-03-06T18:34:27.154Z,8.27
2023-03-06T18:36:55.943Z,8.07
2023-03-06T18:39:23.479Z,8.40
2023-03-06T18:41:51.734Z,8.55
2023-03-06T18:44:19.350Z,8.18
2023-03-06T18:46:47.070Z,8.50
2023-03-06T18:49:16.199Z,8.88
2023-03-06T18:51:43.701Z,7.75
2023-03-06T18:54:12.580Z,8.57
2023-03-06T18:56:44.052Z,8.73
2023-03-06T18:59:16.086Z,9.95
2023-03-06T19:01:45.123Z,9.15
2023-03-06T19:04:12.705Z,9.15
2023-03-06T19:06:41.233Z,9.68
2023-03-06T19:09:09.315Z,9.57
2023-03-06T19:11:38.367Z,9.38
2023-03-06T19:14:06.704Z,10.57
2023-03-06T19:19:51.598Z,9.15
2023-03-06T19:22:19.062Z,9.55
2023-03-06T19:24:48.060Z,9.70
2023-03-06T19:27:16.996Z,8.10
2023-03-06T19:29:44.836Z,8.30
2023-03-06T19:32:15.793Z,8.55
2023-03-06T19:35:24.140Z,9.73
2023-03-06T19:38:33.263Z,8.45
2023-03-06T19:41:01.029Z,9.63
2023-03-06T19:43:30.685Z,10.10
2023-03-06T19:45:58.320Z,9.07
2023-03-06T19:48:26.765Z,10.55
2023-03-06T19:50:54.235Z,10.82
2023-03-06T19:53:23.060Z,14.38
2023-03-06T19:55:50.629Z,11.45
2023-03-06T19:58:18.075Z,9.68
2023-03-06T20:00:46.868Z,8.75
2023-03-06T20:03:14.343Z,9.25
2023-03-06T20:05:46.154Z,10.02
2023-03-06T20:08:13.638Z,8.45
2023-03-06T20:10:41.400Z,8.85
2023-03-06T20:13:08.897Z,9.02
2023-03-06T20:15:36.882Z,9.52
2023-03-06T20:18:06.347Z,9.02
2023-03-06T20:20:33.951Z,8.82
2023-03-06T20:23:04.401Z,8.45
2023-03-06T20:25:36.678Z,8.88
2023-03-06T20:28:04.441Z,9.52
2023-03-06T20:30:38.082Z,9.27
2023-03-06T20:33:07.353Z,11.80
2023-03-06T20:35:35.352Z,9.85
2023-03-06T20:38:03.242Z,9.98
2023-03-06T20:40:30.669Z,10.93
2023-03-06T20:42:58.136Z,10.38
2023-03-06T20:45:25.519Z,9.88
2023-03-06T20:47:56.136Z,11.85
2023-03-06T20:50:25.989Z,10.52
2023-03-06T20:52:53.737Z,15.30
2023-03-06T20:55:21.296Z,12.20
2023-03-06T20:57:49.789Z,12.70
2023-03-06T21:00:19.019Z,9.23
2023-03-06T21:05:14.251Z,8.93
2023-03-06T21:07:43.111Z,8.55
2023-03-06T21:10:11.564Z,8.73
2023-03-06T21:12:39.055Z,8.75
2023-03-06T21:15:08.045Z,10.60
2023-03-06T21:17:35.524Z,8.68
2023-03-06T21:20:05.371Z,8.35
2023-03-06T21:22:32.855Z,9.40
2023-03-06T21:25:01.649Z,8.43
2023-03-06T21:27:29.101Z,8.35
2023-03-06T21:29:56.849Z,9.10
2023-03-06T21:32:24.262Z,8.35
2023-03-06T21:34:51.719Z,8.90
2023-03-06T21:37:19.181Z,8.30
2023-03-06T21:39:46.633Z,8.95
2023-03-06T21:42:15.611Z,8.50
2023-03-06T21:44:43.089Z,9.68
2023-03-06T21:47:10.491Z,8.77
2023-03-06T21:49:38.050Z,8.52
2023-03-06T21:52:05.676Z,8.55
2023-03-06T21:54:33.179Z,8.00
2023-03-06T21:57:00.674Z,9.23
2023-03-06T21:59:29.541Z,9.02
2023-03-06T22:01:57.163Z,8.13
2023-03-06T22:04:24.821Z,9.05
2023-03-06T22:06:52.197Z,7.90
2023-03-06T22:09:20.014Z,8.55
2023-03-06T22:11:47.942Z,8.10
2023-03-06T22:14:15.726Z,8.07
2023-03-06T22:16:44.657Z,8.23
2023-03-06T22:19:12.497Z,8.23
2023-03-06T22:21:40.030Z,8.15
2023-03-06T22:24:07.584Z,8.38
2023-03-06T22:26:34.995Z,8.70
2023-03-06T22:29:02.517Z,8.00
2023-03-06T22:31:30.316Z,8.68
2023-03-06T22:34:00.767Z,7.25
2023-03-06T22:36:30.624Z,7.53
2023-03-06T22:39:00.783Z,7.90
2023-03-06T22:41:28.926Z,7.72
2023-03-06T22:44:02.193Z,7.15
2023-03-06T22:46:30.427Z,8.18
2023-03-06T22:49:00.452Z,7.55
2023-03-06T22:51:29.391Z,7.47
2023-03-06T22:53:56.899Z,8.10
2023-03-06T22:56:24.577Z,7.90
2023-03-06T22:58:52.137Z,7.22
2023-03-06T23:01:21.674Z,8.32
2023-03-06T23:03:50.993Z,7.70
2023-03-06T23:08:50.121Z,7.65
2023-03-06T23:14:05.784Z,6.95
2023-03-06T23:16:52.011Z,7.53
2023-03-06T23:19:38.056Z,7.55
2023-03-06T23:22:25.542Z,7.75
2023-03-06T23:25:11.642Z,7.30
2023-03-06T23:27:39.267Z,8.13
2023-03-06T23:30:09.089Z,7.90
2023-03-06T23:32:36.685Z,7.53
2023-03-06T23:35:04.651Z,7.25
2023-03-06T23:37:33.681Z,7.75
2023-03-06T23:40:01.709Z,8.48
2023-03-06T23:42:29.330Z,7.38
2023-03-06T23:44:56.713Z,7.22
2023-03-06T23:47:24.277Z,7.05
2023-03-06T23:49:51.794Z,7.47
2023-03-06T23:52:19.382Z,7.82
2023-03-06T23:54:52.698Z,7.25
2023-03-06T23:57:20.254Z,7.00
2023-03-06T23:59:47.811Z,7.15
